Time;durP1;ratioP1;P1;durP2;ratioP2;P2;SDS_P1;SDS_P2;PMS_P1;PMS_P2;Temp;Humidity;BMP_temperature;BMP_pressure;BME280_temperature;BME280_humidity;BME280_pressure;Samples;Min_cycle;Max_cycle;Signal;HPM_P1;HPM_P2
2023/10/24 00:00:24;;;;;;;12.50;7.73;;;11.10;99.90;;;;;;5050783;28;20182;-65
2023/10/24 00:02:50;;;;;;;8.53;7.77;;;11.10;99.90;;;;;;5051123;28;20167;-65
2023/10/24 00:05:16;;;;;;;8.60;7.67;;;11.00;99.90;;;;;;5076685;23;20210;-64
2023/10/24 00:07:42;;;;;;;10.40;7.77;;;11.00;99.90;;;;;;5058350;28;20170;-64
2023/10/24 00:10:08;;;;;;;9.17;8.17;;;11.00;99.90;;;;;;5059443;28;20688;-63
2023/10/24 00:12:33;;;;;;;8.47;7.77;;;11.00;99.90;;;;;;5066482;28;20421;-63
2023/10/24 00:14:59;;;;;;;15.30;8.30;;;11.00;99.90;;;;;;5059824;28;20454;-64
2023/10/24 00:17:25;;;;;;;9.93;8.33;;;11.00;99.90;;;;;;5040984;28;20218;-63
2023/10/24 00:19:51;;;;;;;10.33;7.60;;;11.00;99.90;;;;;;5042763;28;20241;-64
2023/10/24 00:22:16;;;;;;;14.00;7.70;;;11.00;99.90;;;;;;5042676;28;20183;-64
2023/10/24 00:24:42;;;;;;;8.50;7.70;;;11.00;99.90;;;;;;5041390;28;20465;-62
2023/10/24 00:27:07;;;;;;;9.47;8.10;;;11.00;99.90;;;;;;5042830;28;20187;-64
2023/10/24 00:29:33;;;;;;;8.67;7.77;;;11.00;99.90;;;;;;5040133;28;20205;-63
2023/10/24 00:31:58;;;;;;;8.37;7.57;;;11.00;99.90;;;;;;5039373;28;20187;-63
2023/10/24 00:34:24;;;;;;;9.13;7.70;;;11.00;99.90;;;;;;5055517;28;20240;-63
2023/10/24 00:36:50;;;;;;;10.17;8.90;;;11.00;99.90;;;;;;5039346;28;20223;-63
2023/10/24 00:39:15;;;;;;;14.70;8.23;;;11.00;99.90;;;;;;5040058;28;20279;-62
2023/10/24 00:41:41;;;;;;;10.80;8.97;;;11.00;99.90;;;;;;5039426;28;20214;-63
2023/10/24 00:44:07;;;;;;;10.83;9.50;;;11.00;99.90;;;;;;5039495;28;20207;-63
2023/10/24 00:46:39;;;;;;;8.63;7.70;;;11.00;99.90;;;;;;5042229;28;20199;-63
2023/10/24 00:49:06;;;;;;;9.00;8.20;;;11.00;99.90;;;;;;5041352;28;20926;-63
2023/10/24 00:51:32;;;;;;;11.43;9.03;;;11.00;99.90;;;;;;5033268;28;20461;-63
2023/10/24 00:53:59;;;;;;;9.53;8.60;;;11.00;99.90;;;;;;5042913;28;20450;-64
2023/10/24 00:56:27;;;;;;;9.40;8.40;;;11.00;99.90;;;;;;5044352;28;20202;-63
2023/10/24 00:58:53;;;;;;;11.20;9.33;;;11.00;99.90;;;;;;5039710;28;20413;-64
2023/10/24 01:01:19;;;;;;;14.57;9.07;;;11.00;99.90;;;;;;5046118;28;20411;-63
2023/10/24 01:03:46;;;;;;;10.33;7.27;;;11.00;99.90;;;;;;5049891;28;20503;-62
2023/10/24 01:06:12;;;;;;;8.93;8.03;;;11.10;99.90;;;;;;5050472;28;20450;-64
2023/10/24 01:08:37;;;;;;;13.87;8.67;;;11.10;99.90;;;;;;5037295;28;20422;-63
2023/10/24 01:11:04;;;;;;;13.10;8.23;;;11.20;99.90;;;;;;5046230;28;20187;-61
2023/10/24 01:13:31;;;;;;;8.97;8.00;;;11.20;99.90;;;;;;5047646;28;20548;-63
2023/10/24 01:15:56;;;;;;;14.13;9.20;;;11.20;99.90;;;;;;5051590;28;20464;-64
2023/10/24 01:18:22;;;;;;;14.20;8.77;;;11.20;99.90;;;;;;5052081;28;20444;-63
2023/10/24 01:20:47;;;;;;;8.33;7.53;;;11.20;99.90;;;;;;5051372;28;20236;-63
2023/10/24 01:23:13;;;;;;;12.47;8.90;;;11.20;99.90;;;;;;5051923;28;20190;-63
2023/10/24 01:25:42;;;;;;;9.77;8.67;;;11.20;99.90;;;;;;5056580;28;20691;-64
2023/10/24 01:28:08;;;;;;;12.63;8.23;;;11.30;99.90;;;;;;5052171;28;20696;-63
2023/10/24 01:30:36;;;;;;;9.77;8.77;;;11.30;99.90;;;;;;5051463;28;20860;-64
2023/10/24 01:33:02;;;;;;;9.80;8.17;;;11.30;99.90;;;;;;5049473;28;20445;-64
2023/10/24 01:35:28;;;;;;;10.00;8.87;;;11.30;99.90;;;;;;5058650;28;20449;-63
2023/10/24 01:37:53;;;;;;;12.93;8.70;;;11.30;99.90;;;;;;5047673;28;20605;-63
2023/10/24 01:40:19;;;;;;;9.10;8.20;;;11.30;99.90;;;;;;5061839;28;20570;-63
2023/10/24 01:42:44;;;;;;;12.87;9.77;;;11.30;99.90;;;;;;5057340;28;20186;-64
2023/10/24 01:45:10;;;;;;;9.80;8.20;;;11.30;99.90;;;;;;5057701;28;20242;-63
2023/10/24 01:47:36;;;;;;;11.17;8.73;;;11.30;99.90;;;;;;5064289;28;20770;-63
2023/10/24 01:50:02;;;;;;;11.17;8.80;;;11.30;99.90;;;;;;5055323;28;20664;-64
2023/10/24 01:52:28;;;;;;;12.67;8.10;;;11.30;99.90;;;;;;5054078;28;20194;-62
2023/10/24 01:54:53;;;;;;;9.40;8.47;;;11.30;99.90;;;;;;5053150;28;20441;-62
2023/10/24 01:57:19;;;;;;;10.03;8.67;;;11.30;99.90;;;;;;5053497;28;20333;-62
2023/10/24 01:59:45;;;;;;;12.00;8.40;;;11.30;99.90;;;;;;5051501;28;20191;-64
2023/10/24 02:02:10;;;;;;;12.90;8.33;;;11.30;99.90;;;;;;5052763;28;20187;-65
2023/10/24 02:04:36;;;;;;;13.43;8.70;;;11.30;99.90;;;;;;5052391;28;20304;-63
2023/10/24 02:07:01;;;;;;;10.33;8.17;;;11.30;99.90;;;;;;5051203;28;20190;-63
2023/10/24 02:09:30;;;;;;;11.50;9.20;;;11.40;99.90;;;;;;5047666;28;20164;-63
2023/10/24 02:11:58;;;;;;;10.23;8.33;;;11.40;99.90;;;;;;5056591;28;20690;-63
2023/10/24 02:14:24;;;;;;;11.03;8.70;;;11.40;99.90;;;;;;5051349;28;20487;-63
2023/10/24 02:16:49;;;;;;;11.47;8.60;;;11.40;99.90;;;;;;5052945;28;20967;-63
2023/10/24 02:19:15;;;;;;;13.90;10.20;;;11.40;99.90;;;;;;5052718;28;20194;-64
2023/10/24 02:21:40;;;;;;;10.70;8.10;;;11.40;99.90;;;;;;5050697;28;20190;-63
2023/10/24 02:24:06;;;;;;;12.03;8.50;;;11.40;99.90;;;;;;5053042;28;20201;-63
2023/10/24 02:26:31;;;;;;;14.30;8.93;;;11.40;99.90;;;;;;5053837;28;20671;-63
2023/10/24 02:28:57;;;;;;;11.40;7.87;;;11.40;99.90;;;;;;5052863;28;20171;-63
2023/10/24 02:31:23;;;;;;;9.47;8.20;;;11.40;99.90;;;;;;5052306;28;20249;-63
2023/10/24 02:33:49;;;;;;;11.90;8.83;;;11.40;99.90;;;;;;5049418;28;20947;-63
2023/10/24 02:36:24;;;;;;;11.03;9.10;;;11.40;99.90;;;;;;5051464;28;20209;-62
2023/10/24 02:38:50;;;;;;;11.80;8.90;;;11.40;99.90;;;;;;5052141;28;20413;-63
2023/10/24 02:41:16;;;;;;;12.83;10.27;;;11.40;99.90;;;;;;5052080;28;20516;-63
2023/10/24 02:43:41;;;;;;;9.23;8.10;;;11.40;99.90;;;;;;5055619;28;20644;-63
2023/10/24 02:46:07;;;;;;;10.20;8.97;;;11.40;99.90;;;;;;5066907;28;20210;-62
2023/10/24 02:48:33;;;;;;;12.13;8.70;;;11.40;99.90;;;;;;5052365;28;20697;-62
2023/10/24 02:50:59;;;;;;;14.67;9.17;;;11.40;99.90;;;;;;5052365;28;20417;-62
2023/10/24 02:53:25;;;;;;;12.27;8.73;;;11.40;99.90;;;;;;5049793;28;20449;-61
2023/10/24 02:55:51;;;;;;;9.13;8.30;;;11.40;99.90;;;;;;5051772;28;20449;-63
2023/10/24 02:58:17;;;;;;;9.60;8.60;;;11.40;99.90;;;;;;5051869;28;20193;-62
2023/10/24 03:00:44;;;;;;;17.10;9.77;;;11.40;99.90;;;;;;5066278;28;20183;-63
2023/10/24 03:03:10;;;;;;;12.17;8.23;;;11.40;99.90;;;;;;5051938;28;20425;-62
2023/10/24 03:05:36;;;;;;;11.47;8.80;;;11.30;99.90;;;;;;5049035;28;20534;-62
2023/10/24 03:08:03;;;;;;;11.80;10.70;;;11.30;99.90;;;;;;5050675;28;20428;-63
2023/10/24 03:10:28;;;;;;;11.13;8.67;;;11.30;99.90;;;;;;5051430;28;20514;-64
2023/10/24 03:12:54;;;;;;;13.20;9.63;;;11.30;99.90;;;;;;5051716;28;20526;-64
2023/10/24 03:15:19;;;;;;;14.07;9.93;;;11.30;99.90;;;;;;5050953;28;20226;-62
2023/10/24 03:17:45;;;;;;;9.97;8.87;;;11.20;99.90;;;;;;5051816;28;20603;-64
2023/10/24 03:20:11;;;;;;;11.93;9.17;;;11.20;99.90;;;;;;5030164;28;20194;-64
2023/10/24 03:22:37;;;;;;;13.47;9.30;;;11.20;99.90;;;;;;5051351;28;20189;-64
2023/10/24 03:25:03;;;;;;;10.50;8.87;;;11.20;99.90;;;;;;5049659;28;20597;-63
2023/10/24 03:27:29;;;;;;;11.17;9.97;;;11.20;99.90;;;;;;5060962;28;20179;-64
2023/10/24 03:29:55;;;;;;;13.57;9.70;;;11.20;99.90;;;;;;5067010;28;20418;-63
2023/10/24 03:32:21;;;;;;;14.43;10.27;;;11.20;99.90;;;;;;5051157;28;20534;-63
2023/10/24 03:34:46;;;;;;;14.53;9.67;;;11.20;99.90;;;;;;5051134;28;20453;-63
2023/10/24 03:37:12;;;;;;;11.73;10.27;;;11.20;99.90;;;;;;5049949;28;20182;-62
2023/10/24 03:39:38;;;;;;;19.73;9.47;;;11.20;99.90;;;;;;5050974;28;20221;-63
2023/10/24 03:42:04;;;;;;;12.03;10.60;;;11.10;99.90;;;;;;5040400;28;20215;-63
2023/10/24 03:44:29;;;;;;;14.43;10.40;;;11.10;99.90;;;;;;5048429;28;20202;-64
2023/10/24 03:46:55;;;;;;;14.13;9.57;;;11.10;99.90;;;;;;5051467;28;20421;-62
2023/10/24 03:49:20;;;;;;;11.73;9.40;;;11.10;99.90;;;;;;5050833;28;20216;-62
2023/10/24 03:51:46;;;;;;;13.87;9.20;;;11.10;99.90;;;;;;5048558;28;20182;-62
2023/10/24 03:54:13;;;;;;;12.60;9.30;;;11.10;99.90;;;;;;5047899;28;20611;-63
2023/10/24 03:56:38;;;;;;;15.30;10.20;;;11.10;99.90;;;;;;5049970;28;20449;-63
2023/10/24 03:59:06;;;;;;;14.70;9.90;;;11.10;99.90;;;;;;5049442;28;20479;-63
2023/10/24 04:01:34;;;;;;;12.40;8.73;;;11.10;99.90;;;;;;5050635;28;20214;-63
2023/10/24 04:04:00;;;;;;;10.27;9.17;;;11.10;99.90;;;;;;5051207;28;20498;-64
2023/10/24 04:06:26;;;;;;;11.67;9.57;;;11.10;99.90;;;;;;5050158;28;20939;-62
2023/10/24 04:08:51;;;;;;;12.23;8.97;;;11.10;99.90;;;;;;5050874;28;20178;-62
2023/10/24 04:11:18;;;;;;;15.03;9.77;;;11.10;99.90;;;;;;5050837;28;20190;-63
2023/10/24 04:13:45;;;;;;;14.63;10.00;;;11.10;99.90;;;;;;5051003;28;20637;-63
2023/10/24 04:16:11;;;;;;;13.73;9.33;;;11.00;99.90;;;;;;5049447;28;20476;-63
2023/10/24 04:18:37;;;;;;;11.60;10.50;;;11.00;99.90;;;;;;5050385;28;20469;-64
2023/10/24 04:21:02;;;;;;;14.63;10.27;;;11.00;99.90;;;;;;5050808;28;20460;-62
2023/10/24 04:23:28;;;;;;;12.93;9.60;;;11.00;99.90;;;;;;5048852;28;20429;-63
2023/10/24 04:25:54;;;;;;;11.87;10.77;;;10.90;99.90;;;;;;5054164;28;20699;-63
2023/10/24 04:28:20;;;;;;;12.13;10.30;;;10.90;99.90;;;;;;5051898;28;20177;-63
2023/10/24 04:30:45;;;;;;;11.80;10.30;;;10.90;99.90;;;;;;5054443;28;20421;-64
2023/10/24 04:33:11;;;;;;;19.13;11.40;;;10.90;99.90;;;;;;5049432;28;20256;-62
2023/10/24 04:35:43;;;;;;;13.50;9.97;;;10.80;99.90;;;;;;5054947;28;20194;-63
2023/10/24 04:38:11;;;;;;;12.50;10.77;;;10.80;99.90;;;;;;5053475;28;20213;-62
2023/10/24 04:40:38;;;;;;;20.37;11.67;;;10.70;99.90;;;;;;5054898;28;20450;-63
2023/10/24 04:43:04;;;;;;;13.00;11.07;;;10.70;99.90;;;;;;5057145;28;20448;-64
2023/10/24 04:45:31;;;;;;;12.77;10.30;;;10.70;99.90;;;;;;5049262;28;20464;-62
2023/10/24 04:48:01;;;;;;;17.33;9.97;;;10.60;99.90;;;;;;5054628;28;20753;-61
2023/10/24 04:50:27;;;;;;;12.90;11.37;;;10.60;99.90;;;;;;5054644;28;20512;-64
2023/10/24 04:52:53;;;;;;;13.47;12.07;;;10.60;99.90;;;;;;5049124;28;21014;-64
2023/10/24 04:55:19;;;;;;;12.27;11.03;;;10.60;99.90;;;;;;5052683;28;20441;-62
2023/10/24 04:57:45;;;;;;;14.67;11.43;;;10.60;99.90;;;;;;5054766;28;20927;-64
2023/10/24 05:00:11;;;;;;;11.87;10.43;;;10.60;99.90;;;;;;5052125;28;20198;-63
2023/10/24 05:02:38;;;;;;;13.47;10.40;;;10.60;99.90;;;;;;5054156;28;20218;-64
2023/10/24 05:05:05;;;;;;;16.50;10.80;;;10.60;99.90;;;;;;5053989;28;20464;-63
2023/10/24 05:07:30;;;;;;;12.60;11.20;;;10.60;99.90;;;;;;5053714;28;20432;-64
2023/10/24 05:09:56;;;;;;;12.67;11.47;;;10.60;99.90;;;;;;5051883;28;20535;-63
2023/10/24 05:12:21;;;;;;;18.13;11.67;;;10.60;99.90;;;;;;5055885;28;20171;-62
2023/10/24 05:14:47;;;;;;;15.97;10.83;;;10.60;99.90;;;;;;5052074;28;20233;-64
2023/10/24 05:17:14;;;;;;;13.40;12.10;;;10.60;99.90;;;;;;5062382;28;20300;-63
2023/10/24 05:19:41;;;;;;;18.40;11.23;;;10.50;99.90;;;;;;5074272;28;20547;-63
2023/10/24 05:22:07;;;;;;;15.13;12.60;;;10.60;99.90;;;;;;5066282;28;20507;-63
2023/10/24 05:24:33;;;;;;;13.00;11.50;;;10.60;99.90;;;;;;5053616;28;20468;-62
2023/10/24 05:26:59;;;;;;;15.80;12.47;;;10.60;99.90;;;;;;5054111;28;20433;-63
2023/10/24 05:29:24;;;;;;;13.43;11.00;;;10.60;99.90;;;;;;5051681;28;20171;-61
2023/10/24 05:31:50;;;;;;;16.00;11.40;;;10.60;99.90;;;;;;5052661;28;20179;-64
2023/10/24 05:34:16;;;;;;;19.63;12.97;;;10.60;99.90;;;;;;5049633;28;20190;-65
2023/10/24 05:36:41;;;;;;;15.00;11.70;;;10.60;99.90;;;;;;5063058;28;20234;-64
2023/10/24 05:39:07;;;;;;;15.03;11.67;;;10.60;99.90;;;;;;5056913;28;20652;-64
2023/10/24 05:41:33;;;;;;;16.33;11.70;;;10.60;99.90;;;;;;5055761;28;20174;-63
2023/10/24 05:43:58;;;;;;;17.67;11.53;;;10.50;99.90;;;;;;5051904;28;20203;-64
2023/10/24 05:46:24;;;;;;;12.27;10.33;;;10.50;99.90;;;;;;5051578;28;20218;-65
2023/10/24 05:48:49;;;;;;;14.27;10.90;;;10.50;99.90;;;;;;5053240;28;20554;-65
2023/10/24 05:51:27;;;;;;;17.23;11.20;;;10.50;99.90;;;;;;5059531;28;20261;-63
2023/10/24 05:53:53;;;;;;;15.80;11.40;;;10.50;99.90;;;;;;5066716;28;20185;-64
2023/10/24 05:56:19;;;;;;;16.20;10.60;;;10.60;99.90;;;;;;5052491;28;20433;-64
2023/10/24 05:58:45;;;;;;;15.07;11.60;;;10.60;99.90;;;;;;5050318;28;20425;-64
2023/10/24 06:01:11;;;;;;;14.23;12.23;;;10.60;99.90;;;;;;5053478;28;20175;-64
2023/10/24 06:03:36;;;;;;;13.20;11.60;;;10.60;99.90;;;;;;5030179;28;20202;-64
2023/10/24 06:06:02;;;;;;;14.57;12.10;;;10.50;99.90;;;;;;5053073;28;21006;-63
2023/10/24 06:08:27;;;;;;;12.30;9.73;;;10.60;99.90;;;;;;5053608;28;20178;-64
2023/10/24 06:10:57;;;;;;;15.00;11.27;;;10.60;99.90;;;;;;5051306;28;20179;-63
2023/10/24 06:13:24;;;;;;;16.17;11.40;;;10.50;99.90;;;;;;5053276;28;20210;-63
2023/10/24 06:15:49;;;;;;;17.30;11.50;;;10.50;99.90;;;;;;5051128;28;20501;-64
2023/10/24 06:18:15;;;;;;;21.50;13.70;;;10.50;99.90;;;;;;5053000;28;20452;-64
2023/10/24 06:20:40;;;;;;;20.87;12.17;;;10.50;99.90;;;;;;5052798;28;20690;-62
2023/10/24 06:23:07;;;;;;;11.73;10.43;;;10.50;99.90;;;;;;5052998;28;20181;-63
2023/10/24 06:25:42;;;;;;;15.30;12.47;;;10.60;99.90;;;;;;5049763;28;20218;-61
2023/10/24 06:28:08;;;;;;;14.50;13.07;;;10.60;99.90;;;;;;5073179;28;20429;-63
2023/10/24 06:30:35;;;;;;;13.30;11.13;;;10.60;99.90;;;;;;5052466;28;20465;-63
2023/10/24 06:33:01;;;;;;;12.90;11.10;;;10.60;99.90;;;;;;5052567;28;20418;-63
2023/10/24 06:35:27;;;;;;;14.87;11.00;;;10.60;99.90;;;;;;5052277;28;20483;-63
2023/10/24 06:37:53;;;;;;;15.47;12.00;;;10.60;99.90;;;;;;5050598;28;20430;-63
2023/10/24 06:40:18;;;;;;;14.17;12.10;;;10.70;99.90;;;;;;5049972;28;20183;-63
2023/10/24 06:42:45;;;;;;;14.40;9.73;;;10.70;99.90;;;;;;5052951;28;20269;-62
2023/10/24 06:45:11;;;;;;;14.10;10.50;;;10.70;99.90;;;;;;5049523;28;20205;-63
2023/10/24 06:47:37;;;;;;;14.93;11.40;;;10.70;99.90;;;;;;5044481;28;20884;-64
2023/10/24 06:50:04;;;;;;;16.20;11.33;;;10.70;99.90;;;;;;5048826;28;20434;-64
2023/10/24 06:52:33;;;;;;;15.43;11.50;;;10.70;99.90;;;;;;5049986;28;20487;-63
2023/10/24 06:55:00;;;;;;;13.97;11.27;;;10.80;99.90;;;;;;5047648;28;20507;-64
2023/10/24 06:57:26;;;;;;;13.00;10.77;;;10.80;99.90;;;;;;5048679;28;20447;-64
2023/10/24 06:59:51;;;;;;;17.40;10.60;;;10.80;99.90;;;;;;5048858;28;20441;-64
2023/10/24 07:02:17;;;;;;;17.17;11.83;;;10.90;99.90;;;;;;5051933;28;20445;-64
2023/10/24 07:04:43;;;;;;;14.80;10.70;;;10.90;99.90;;;;;;5060474;28;20206;-64
2023/10/24 07:07:09;;;;;;;15.07;12.17;;;10.90;99.90;;;;;;5061745;28;20429;-67
2023/10/24 07:09:35;;;;;;;14.23;11.23;;;11.00;99.90;;;;;;5049630;28;20440;-65
2023/10/24 07:12:00;;;;;;;14.43;10.20;;;11.00;99.90;;;;;;5046025;28;20621;-66
2023/10/24 07:14:26;;;;;;;16.67;11.23;;;11.10;99.90;;;;;;5065745;28;20178;-64
2023/10/24 07:16:52;;;;;;;20.77;11.53;;;11.00;99.90;;;;;;5048235;28;20190;-64
2023/10/24 07:19:18;;;;;;;13.33;11.70;;;11.10;99.90;;;;;;5047242;28;20179;-65
2023/10/24 07:21:44;;;;;;;16.03;10.73;;;11.10;99.90;;;;;;5048609;28;20219;-64
2023/10/24 07:24:09;;;;;;;13.13;9.80;;;11.10;99.90;;;;;;5040803;28;20420;-64
2023/10/24 07:26:35;;;;;;;13.57;10.37;;;11.20;99.90;;;;;;5047113;28;20679;-65
2023/10/24 07:29:01;;;;;;;12.00;9.63;;;11.20;99.90;;;;;;5043441;28;20544;-64
2023/10/24 07:31:26;;;;;;;18.43;13.40;;;11.20;99.90;;;;;;5046116;28;20253;-62
2023/10/24 07:33:52;;;;;;;16.40;11.37;;;11.30;99.90;;;;;;5047597;28;20261;-64
2023/10/24 07:36:18;;;;;;;13.57;9.93;;;11.30;99.90;;;;;;5050053;28;20660;-63
2023/10/24 07:38:43;;;;;;;11.50;8.80;;;11.30;99.90;;;;;;5051602;28;20184;-64
2023/10/24 07:41:10;;;;;;;11.43;9.80;;;11.40;99.90;;;;;;5051616;28;20625;-63
2023/10/24 07:43:37;;;;;;;13.53;10.50;;;11.40;99.90;;;;;;5051983;28;20183;-64
2023/10/24 07:46:02;;;;;;;11.37;8.63;;;11.50;99.90;;;;;;5051618;28;20475;-64
2023/10/24 07:48:28;;;;;;;12.10;10.50;;;11.40;99.90;;;;;;5051614;28;20504;-64
2023/10/24 07:50:55;;;;;;;11.23;9.30;;;11.50;99.90;;;;;;5052519;28;20187;-63
2023/10/24 07:53:25;;;;;;;10.20;9.07;;;11.50;99.90;;;;;;5038797;28;20163;-64
2023/10/24 07:55:52;;;;;;;18.30;9.80;;;11.50;99.90;;;;;;5051026;28;20783;-64
2023/10/24 07:58:18;;;;;;;12.60;11.27;;;11.50;99.90;;;;;;5054949;28;20836;-64
2023/10/24 08:00:47;;;;;;;11.10;9.17;;;11.50;99.90;;;;;;5061644;28;20515;-64
2023/10/24 08:03:14;;;;;;;13.00;10.07;;;11.50;99.90;;;;;;5075830;28;20435;-64
2023/10/24 08:05:40;;;;;;;10.17;9.13;;;11.50;99.90;;;;;;5075077;28;20468;-64
2023/10/24 08:08:06;;;;;;;16.77;10.60;;;11.50;99.90;;;;;;5075654;28;20503;-63
2023/10/24 08:10:32;;;;;;;12.57;10.30;;;11.50;99.90;;;;;;5063332;28;21022;-64
2023/10/24 08:12:59;;;;;;;21.03;10.27;;;11.50;99.90;;;;;;5055458;28;20441;-63
2023/10/24 08:15:24;;;;;;;14.00;9.40;;;11.60;99.90;;;;;;5055418;28;20515;-64
2023/10/24 08:17:51;;;;;;;17.27;9.30;;;11.60;99.90;;;;;;5053066;28;21018;-63
2023/10/24 08:20:17;;;;;;;12.80;11.30;;;11.60;99.90;;;;;;5046741;28;20183;-63
2023/10/24 08:22:43;;;;;;;13.30;10.20;;;11.60;99.90;;;;;;5040876;28;20496;-64
2023/10/24 08:25:08;;;;;;;16.67;11.50;;;11.60;99.90;;;;;;5048973;28;20210;-63
2023/10/24 08:27:34;;;;;;;11.17;9.70;;;11.60;99.90;;;;;;5054627;28;20215;-63
2023/10/24 08:30:00;;;;;;;13.30;10.30;;;11.60;99.90;;;;;;5054730;28;20210;-63
2023/10/24 08:32:25;;;;;;;12.40;10.33;;;11.60;99.90;;;;;;5053411;28;20163;-62
2023/10/24 08:34:51;;;;;;;13.73;10.20;;;11.50;99.90;;;;;;5042518;28;20432;-63
2023/10/24 08:37:16;;;;;;;12.00;10.80;;;11.50;99.90;;;;;;5046330;28;20233;-63
2023/10/24 08:39:43;;;;;;;16.10;10.07;;;11.50;99.90;;;;;;5061938;28;20236;-63
2023/10/24 08:42:13;;;;;;;13.43;10.30;;;11.50;99.90;;;;;;5057491;28;20202;-63
2023/10/24 08:44:40;;;;;;;12.50;10.43;;;11.50;99.90;;;;;;5054528;28;20448;-63
2023/10/24 08:47:06;;;;;;;15.20;11.43;;;11.50;99.90;;;;;;5074711;28;20408;-63
2023/10/24 08:49:35;;;;;;;16.20;10.60;;;11.50;99.90;;;;;;5074934;28;20443;-62
2023/10/24 08:52:01;;;;;;;11.70;10.43;;;11.60;99.90;;;;;;5073440;28;20456;-62
2023/10/24 08:54:27;;;;;;;15.40;10.53;;;11.60;99.90;;;;;;5074606;28;20444;-63
2023/10/24 08:56:53;;;;;;;23.63;11.40;;;11.60;99.90;;;;;;5052673;28;20183;-63
2023/10/24 08:59:20;;;;;;;17.43;11.53;;;11.70;99.90;;;;;;5054308;28;20456;-64
2023/10/24 09:01:48;;;;;;;12.03;10.70;;;11.80;99.90;;;;;;5068732;28;20423;-65
2023/10/24 09:04:14;;;;;;;13.77;10.20;;;11.80;99.90;;;;;;5074747;28;20415;-64
2023/10/24 09:06:40;;;;;;;11.87;10.43;;;11.80;99.90;;;;;;5073855;28;20473;-67
2023/10/24 09:09:05;;;;;;;14.07;9.57;;;11.90;99.90;;;;;;5073943;28;20408;-64
2023/10/24 09:11:52;;;;;;;15.03;11.43;;;12.00;99.90;;;;;;5058893;28;20186;-63
2023/10/24 09:14:17;;;;;;;12.03;10.27;;;12.00;99.90;;;;;;5053962;28;20642;-64
2023/10/24 09:16:43;;;;;;;12.30;10.17;;;12.10;99.90;;;;;;5053863;28;20442;-65
2023/10/24 09:19:15;;;;;;;17.93;10.67;;;12.20;99.90;;;;;;5054139;28;20205;-62
2023/10/24 09:21:41;;;;;;;15.47;11.40;;;12.20;99.90;;;;;;5053801;28;20171;-65
2023/10/24 09:24:12;;;;;;;11.20;9.67;;;12.30;99.90;;;;;;5053975;28;20436;-63
2023/10/24 09:26:38;;;;;;;15.93;9.80;;;12.30;99.90;;;;;;5053901;28;20244;-63
2023/10/24 09:29:07;;;;;;;17.67;11.70;;;12.40;99.90;;;;;;5049659;28;20438;-62
2023/10/24 09:31:33;;;;;;;11.33;9.57;;;12.40;99.90;;;;;;5054202;28;20417;-62
2023/10/24 09:33:59;;;;;;;13.40;10.33;;;12.40;99.90;;;;;;5054038;28;20516;-63
2023/10/24 09:36:25;;;;;;;14.17;10.40;;;12.40;99.90;;;;;;5054020;28;20634;-64
2023/10/24 09:38:52;;;;;;;12.77;10.63;;;12.40;99.90;;;;;;5053829;28;20261;-64
2023/10/24 09:41:18;;;;;;;13.17;10.07;;;12.40;99.90;;;;;;5053844;28;20542;-63
2023/10/24 09:43:48;;;;;;;14.67;10.43;;;12.60;99.90;;;;;;5053692;28;20429;-64
2023/10/24 09:46:21;;;;;;;11.80;10.53;;;12.70;99.90;;;;;;5052088;28;21050;-62
2023/10/24 09:48:49;;;;;;;17.00;9.70;;;12.70;99.90;;;;;;5053761;28;20476;-65
2023/10/24 09:51:19;;;;;;;12.60;9.80;;;12.60;99.90;;;;;;5058758;28;20427;-64
2023/10/24 09:53:45;;;;;;;12.00;9.50;;;12.60;99.90;;;;;;5046202;28;20433;-65
2023/10/24 09:56:13;;;;;;;10.93;9.83;;;12.50;99.90;;;;;;5050860;28;20430;-65
2023/10/24 09:58:41;;;;;;;17.20;10.67;;;12.60;99.90;;;;;;5052733;28;20421;-64
2023/10/24 10:01:08;;;;;;;10.80;9.70;;;12.60;99.90;;;;;;5054314;28;20437;-63
2023/10/24 10:03:35;;;;;;;12.53;10.60;;;12.50;99.90;;;;;;5050642;28;20449;-62
2023/10/24 10:06:11;;;;;;;13.40;11.20;;;12.50;99.90;;;;;;5052591;28;20476;-64
2023/10/24 10:08:39;;;;;;;14.40;9.80;;;12.60;99.90;;;;;;5043981;28;20753;-64
2023/10/24 10:11:06;;;;;;;13.30;10.43;;;12.60;99.90;;;;;;5035906;28;20524;-62
2023/10/24 10:13:44;;;;;;;19.07;9.70;;;12.60;99.90;;;;;;5042341;28;20413;-63
2023/10/24 10:16:22;;;;;;;11.07;8.80;;;12.60;99.90;;;;;;5051892;28;20841;-64
2023/10/24 10:19:03;;;;;;;15.00;10.33;;;12.60;99.90;;;;;;5049153;28;20493;-66
2023/10/24 10:22:20;;;;;;;12.97;10.10;;;12.50;99.90;;;;;;5051442;28;20445;-64
2023/10/24 10:25:03;;;;;;;12.80;9.90;;;12.60;99.90;;;;;;5045389;28;20461;-63
2023/10/24 10:27:43;;;;;;;12.50;9.97;;;12.60;99.90;;;;;;5048789;28;20555;-64
2023/10/24 10:30:29;;;;;;;11.13;9.90;;;12.70;99.90;;;;;;5047880;28;20425;-64
2023/10/24 10:33:13;;;;;;;14.03;10.03;;;12.70;99.90;;;;;;5030183;28;20414;-63
2023/10/24 10:35:58;;;;;;;10.53;9.03;;;12.70;99.90;;;;;;5045809;28;20437;-63
2023/10/24 10:38:35;;;;;;;15.40;10.97;;;12.80;99.90;;;;;;5047660;28;20440;-63
2023/10/24 10:41:20;;;;;;;13.27;10.20;;;12.70;99.90;;;;;;5054483;28;20785;-63
2023/10/24 10:43:45;;;;;;;13.50;10.53;;;12.80;99.90;;;;;;5041635;28;20410;-63
2023/10/24 10:46:23;;;;;;;21.20;11.13;;;12.70;99.90;;;;;;5052237;28;20465;-63
2023/10/24 10:48:50;;;;;;;15.20;9.87;;;12.70;99.90;;;;;;5045142;28;20176;-64
2023/10/24 10:51:17;;;;;;;13.37;9.63;;;12.80;99.90;;;;;;5052215;28;20436;-62
2023/10/24 10:53:57;;;;;;;17.30;11.23;;;12.90;99.90;;;;;;5051242;28;20460;-63
2023/10/24 10:56:30;;;;;;;13.07;10.90;;;12.90;99.90;;;;;;5053133;28;20440;-63
2023/10/24 10:59:31;;;;;;;10.80;9.50;;;13.00;99.90;;;;;;5038843;28;20446;-62
2023/10/24 11:02:18;;;;;;;12.20;10.43;;;13.00;99.90;;;;;;4997479;28;20487;-61
2023/10/24 11:04:44;;;;;;;14.93;10.47;;;13.20;99.90;;;;;;5047000;28;20453;-63
2023/10/24 11:07:09;;;;;;;15.57;9.87;;;13.10;99.90;;;;;;5032993;28;20438;-63
2023/10/24 11:09:37;;;;;;;14.87;9.53;;;13.10;99.90;;;;;;5051231;28;20182;-64
2023/10/24 11:12:21;;;;;;;13.80;10.83;;;13.20;99.90;;;;;;5048982;28;20215;-59
2023/10/24 11:15:16;;;;;;;11.53;9.63;;;13.30;99.90;;;;;;5047384;28;20481;-63
2023/10/24 11:17:42;;;;;;;13.53;10.53;;;13.40;99.90;;;;;;5072532;28;20501;-63
2023/10/24 11:20:09;;;;;;;12.60;9.97;;;13.20;99.90;;;;;;5071925;28;20506;-63
2023/10/24 11:22:35;;;;;;;10.47;9.33;;;13.20;99.90;;;;;;5071856;28;20428;-62
2023/10/24 11:25:14;;;;;;;14.13;9.93;;;13.20;99.90;;;;;;5071738;28;20460;-62
2023/10/24 11:27:41;;;;;;;13.90;10.50;;;13.30;99.90;;;;;;5054013;28;20927;-61
2023/10/24 11:30:07;;;;;;;13.60;10.13;;;13.40;99.90;;;;;;5042790;28;20997;-62
2023/10/24 11:32:34;;;;;;;12.37;9.73;;;13.30;99.90;;;;;;5051937;28;20480;-61
2023/10/24 11:35:00;;;;;;;13.30;9.60;;;13.20;99.90;;;;;;5051786;28;20433;-65
2023/10/24 11:37:27;;;;;;;13.97;10.47;;;13.40;99.90;;;;;;5051586;28;20900;-64
2023/10/24 11:39:53;;;;;;;11.03;9.67;;;13.40;99.90;;;;;;5051527;28;20422;-62
2023/10/24 11:42:19;;;;;;;13.60;9.90;;;13.40;99.90;;;;;;5051894;28;20448;-61
2023/10/24 11:44:44;;;;;;;14.03;10.77;;;13.50;99.90;;;;;;5059459;28;20201;-62
2023/10/24 11:47:16;;;;;;;14.50;10.87;;;13.40;99.90;;;;;;5056738;28;20550;-62
2023/10/24 11:49:46;;;;;;;12.10;9.73;;;13.40;99.90;;;;;;5051361;28;20565;-62
2023/10/24 11:52:12;;;;;;;12.10;9.23;;;13.50;99.90;;;;;;5051256;28;20479;-61
2023/10/24 11:54:41;;;;;;;11.90;10.40;;;13.60;99.90;;;;;;5051299;28;20834;-61
2023/10/24 11:57:07;;;;;;;12.73;9.27;;;13.50;99.90;;;;;;5051605;28;20591;-62
2023/10/24 11:59:37;;;;;;;10.17;9.17;;;13.50;99.90;;;;;;5049520;28;20518;-61
2023/10/24 12:02:03;;;;;;;11.13;9.87;;;13.50;99.90;;;;;;5067721;28;20941;-61
2023/10/24 12:04:32;;;;;;;15.03;9.60;;;13.50;99.90;;;;;;5052494;28;20866;-65
2023/10/24 12:07:08;;;;;;;13.00;10.00;;;13.50;99.90;;;;;;5068659;28;21026;-64
2023/10/24 12:09:35;;;;;;;13.73;10.10;;;13.50;99.90;;;;;;5057363;28;20421;-62
2023/10/24 12:12:07;;;;;;;13.77;11.07;;;13.50;99.90;;;;;;5032252;28;20438;-64
2023/10/24 12:14:35;;;;;;;22.80;9.90;;;13.40;99.90;;;;;;5051128;28;20409;-66
2023/10/24 12:17:01;;;;;;;12.77;11.07;;;13.40;99.90;;;;;;5046003;28;20443;-68
2023/10/24 12:19:27;;;;;;;12.73;10.90;;;13.40;99.90;;;;;;5050951;28;20422;-64
2023/10/24 12:21:54;;;;;;;13.80;11.10;;;13.30;99.90;;;;;;5049645;28;20433;-65
2023/10/24 12:24:20;;;;;;;15.27;10.70;;;13.30;99.90;;;;;;5043034;28;20432;-64
2023/10/24 12:26:45;;;;;;;13.10;11.47;;;13.20;99.90;;;;;;5043240;28;20457;-69
2023/10/24 12:29:11;;;;;;;13.87;10.10;;;13.20;99.90;;;;;;5053164;28;20199;-63
2023/10/24 12:31:37;;;;;;;13.97;10.87;;;13.30;99.90;;;;;;5049046;28;20237;-65
2023/10/24 12:34:03;;;;;;;143.60;96.77;;;13.30;99.90;;;;;;5046633;28;20832;-63